Time;durP1;ratioP1;P1;durP2;ratioP2;P2;SDS_P1;SDS_P2;PMS_P1;PMS_P2;Temp;Humidity;BMP_temperature;BMP_pressure;BME280_temperature;BME280_humidity;BME280_pressure;Samples;Min_cycle;Max_cycle;Signal;HPM_P1;HPM_P2
2021/06/18 00:01:07;;;;;;;23.83;9.13;;;;;;;13.12;67.89;99368.98;2177353;81;21570;-68
2021/06/18 00:04:08;;;;;;;23.07;8.83;;;;;;;13.15;67.86;99363.52;2177098;82;20985;-65
2021/06/18 00:07:08;;;;;;;25.60;10.43;;;;;;;13.14;67.50;99365.28;2177382;82;21060;-66
2021/06/18 00:10:08;;;;;;;27.75;12.13;;;;;;;13.10;67.61;99364.26;2177093;81;20972;-66
2021/06/18 00:13:09;;;;;;;23.02;9.23;;;;;;;13.04;67.87;99368.13;2177186;82;20996;-65
2021/06/18 00:16:09;;;;;;;22.40;9.00;;;;;;;12.97;68.25;99361.09;2177005;82;21554;-65
2021/06/18 00:19:10;;;;;;;24.87;8.93;;;;;;;12.90;68.12;99353.66;2177089;82;20964;-65
2021/06/18 00:22:10;;;;;;;25.00;9.33;;;;;;;12.80;68.61;99352.92;2177059;82;20972;-64
2021/06/18 00:25:10;;;;;;;21.87;8.45;;;;;;;12.71;68.23;99341.62;2177305;82;21017;-68
2021/06/18 00:28:13;;;;;;;22.80;9.53;;;;;;;12.70;68.37;99346.99;2176079;82;21024;-65
2021/06/18 00:31:13;;;;;;;23.98;10.88;;;;;;;12.68;68.56;99348.41;2152391;82;20977;-67
2021/06/18 00:34:14;;;;;;;22.07;8.60;;;;;;;12.56;68.56;99355.75;2175181;82;20985;-69
2021/06/18 00:37:14;;;;;;;22.60;8.88;;;;;;;12.50;69.13;99358.28;2175344;82;21005;-70
2021/06/18 00:40:14;;;;;;;23.65;8.20;;;;;;;12.39;68.97;99351.02;2175058;82;20941;-66
2021/06/18 00:43:16;;;;;;;22.82;8.35;;;;;;;12.30;69.08;99353.73;2174815;82;21048;-65
2021/06/18 00:46:16;;;;;;;21.23;7.87;;;;;;;12.20;68.93;99348.66;2175077;82;21040;-65
2021/06/18 00:49:16;;;;;;;21.17;8.35;;;;;;;12.14;69.24;99345.08;2175170;82;21518;-65
2021/06/18 00:52:17;;;;;;;19.75;8.13;;;;;;;12.11;69.51;99343.48;2175036;82;20989;-65
2021/06/18 00:55:17;;;;;;;25.12;8.58;;;;;;;12.03;70.41;99350.95;2175076;82;21084;-69
2021/06/18 00:58:18;;;;;;;21.00;8.53;;;;;;;11.94;70.15;99348.41;2175210;82;20996;-66
2021/06/18 01:01:18;;;;;;;21.85;7.53;;;;;;;11.90;70.17;99343.39;2175035;82;20980;-63
2021/06/18 01:04:18;;;;;;;22.48;8.88;;;;;;;11.84;70.00;99341.96;2175182;82;21028;-64
2021/06/18 01:07:19;;;;;;;38.20;16.95;;;;;;;11.81;70.29;99341.27;2175050;82;21491;-67
2021/06/18 01:10:19;;;;;;;29.67;12.58;;;;;;;11.81;70.18;99339.52;2174761;82;21017;-63
2021/06/18 01:13:20;;;;;;;30.20;12.45;;;;;;;11.81;70.51;99332.95;2175005;82;21061;-65
2021/06/18 01:16:21;;;;;;;30.72;13.80;;;;;;;11.81;70.62;99329.45;2175041;82;20984;-63
2021/06/18 01:19:21;;;;;;;24.90;9.63;;;;;;;11.80;70.60;99331.24;2175262;82;20972;-65
2021/06/18 01:22:21;;;;;;;24.32;9.13;;;;;;;11.81;71.07;99326.82;2175015;82;20984;-63
2021/06/18 01:25:22;;;;;;;23.22;8.60;;;;;;;11.82;71.12;99326.73;2175158;82;20934;-67
2021/06/18 01:28:22;;;;;;;21.75;8.40;;;;;;;11.81;70.94;99328.14;2174895;82;21512;-63
2021/06/18 01:31:23;;;;;;;24.57;9.78;;;;;;;11.71;71.21;99326.05;2175007;82;21029;-64
2021/06/18 01:34:23;;;;;;;24.10;8.93;;;;;;;11.67;71.44;99322.39;2174990;82;20965;-65
2021/06/18 01:37:24;;;;;;;20.60;7.62;;;;;;;11.67;71.18;99323.70;2174981;81;20977;-65
2021/06/18 01:40:24;;;;;;;26.17;10.75;;;;;;;11.61;71.42;99320.95;2175217;81;20964;-63
2021/06/18 01:43:27;;;;;;;22.02;9.48;;;;;;;11.48;71.84;99322.56;2174631;82;21532;-68
2021/06/18 01:46:27;;;;;;;22.77;8.93;;;;;;;11.34;72.10;99323.37;2152257;82;20996;-63
2021/06/18 01:49:28;;;;;;;22.52;8.75;;;;;;;11.27;71.69;99322.37;2175174;81;21028;-67
2021/06/18 01:52:28;;;;;;;26.12;10.00;;;;;;;11.32;71.80;99320.83;2175050;81;20984;-65
2021/06/18 01:55:29;;;;;;;26.12;10.03;;;;;;;11.41;71.79;99323.41;2175199;81;21012;-69
2021/06/18 01:58:29;;;;;;;22.80;8.60;;;;;;;11.34;71.64;99327.31;2175314;82;20969;-66
2021/06/18 02:01:30;;;;;;;18.40;6.35;;;;;;;11.21;71.95;99334.55;2175016;82;20980;-66
2021/06/18 02:04:30;;;;;;;18.82;7.17;;;;;;;11.15;71.69;99323.52;2175125;82;21500;-66
2021/06/18 02:07:30;;;;;;;19.02;7.33;;;;;;;11.12;71.75;99331.58;2175199;82;21472;-63
2021/06/18 02:10:31;;;;;;;23.40;8.48;;;;;;;11.11;72.04;99336.47;2174973;82;21088;-66
2021/06/18 02:13:31;;;;;;;24.40;9.93;;;;;;;11.04;72.06;99334.16;2175059;82;21012;-64
2021/06/18 02:16:32;;;;;;;23.40;9.08;;;;;;;11.05;72.06;99338.48;2175310;82;21462;-63
2021/06/18 02:19:32;;;;;;;21.23;9.05;;;;;;;11.08;72.04;99333.54;2175202;82;20980;-64
2021/06/18 02:22:33;;;;;;;22.22;8.53;;;;;;;11.09;72.01;99326.02;2175164;82;20996;-65
2021/06/18 02:25:33;;;;;;;20.95;7.90;;;;;;;11.12;72.21;99330.27;2175081;82;21467;-62
2021/06/18 02:28:33;;;;;;;20.95;7.40;;;;;;;11.13;72.49;99330.66;2174791;81;21004;-64
2021/06/18 02:31:34;;;;;;;21.20;7.75;;;;;;;11.13;72.54;99327.55;2174951;82;21131;-63
2021/06/18 02:34:34;;;;;;;19.52;7.70;;;;;;;11.13;72.31;99320.16;2175320;82;20980;-62
2021/06/18 02:37:35;;;;;;;22.48;7.85;;;;;;;11.13;72.11;99308.34;2175064;82;20961;-63
2021/06/18 02:40:35;;;;;;;22.80;9.18;;;;;;;11.15;72.18;99309.09;2175147;82;20996;-68
2021/06/18 02:43:36;;;;;;;24.75;7.97;;;;;;;11.14;72.62;99312.66;2173655;82;21036;-64
2021/06/18 02:46:37;;;;;;;23.90;8.08;;;;;;;11.11;73.01;99312.84;2173856;82;21021;-64
2021/06/18 02:49:38;;;;;;;20.15;7.22;;;;;;;11.13;73.20;99319.67;2173892;81;21063;-63
2021/06/18 02:52:38;;;;;;;19.50;6.75;;;;;;;11.06;71.73;99312.63;2173858;82;21506;-65
2021/06/18 02:55:38;;;;;;;21.57;8.05;;;;;;;10.90;71.23;99315.25;2173917;81;20999;-71
2021/06/18 02:58:39;;;;;;;17.60;6.92;;;;;;;10.81;71.62;99325.39;2173853;82;21021;-63
2021/06/18 03:01:39;;;;;;;20.25;7.50;;;;;;;10.79;72.23;99334.66;2175040;82;20981;-67
2021/06/18 03:04:40;;;;;;;20.92;7.58;;;;;;;10.90;72.69;99335.38;2175063;82;21009;-67
2021/06/18 03:07:40;;;;;;;19.60;7.67;;;;;;;11.07;72.04;99325.27;2175228;82;20942;-64
2021/06/18 03:10:41;;;;;;;23.30;10.48;;;;;;;11.17;72.26;99321.20;2174999;82;20949;-64
2021/06/18 03:13:41;;;;;;;21.95;8.95;;;;;;;11.36;72.39;99317.55;2175015;82;21495;-64
2021/06/18 03:16:41;;;;;;;24.02;11.88;;;;;;;11.60;72.60;99325.34;2175128;82;21459;-64
2021/06/18 03:19:42;;;;;;;27.52;15.23;;;;;;;11.85;71.90;99323.95;2175116;82;20956;-68
2021/06/18 03:22:42;;;;;;;28.70;15.00;;;;;;;12.12;72.11;99317.56;2175068;81;21031;-65
2021/06/18 03:25:43;;;;;;;22.93;8.28;;;;;;;12.39;72.00;99316.83;2174849;82;21067;-63
2021/06/18 03:28:43;;;;;;;22.40;9.05;;;;;;;12.61;72.01;99314.20;2175143;82;21041;-67
2021/06/18 03:31:44;;;;;;;24.57;8.43;;;;;;;12.81;71.77;99307.70;2175169;82;21024;-65
2021/06/18 03:34:44;;;;;;;22.42;7.97;;;;;;;13.04;71.31;99306.72;2175120;82;21507;-65
2021/06/18 03:37:44;;;;;;;20.20;7.25;;;;;;;13.28;70.98;99305.14;2175154;82;21479;-69
2021/06/18 03:40:45;;;;;;;21.65;7.37;;;;;;;13.51;70.67;99311.58;2175027;82;20969;-68
2021/06/18 03:43:46;;;;;;;20.70;7.17;;;;;;;13.71;70.33;99312.56;2174881;82;20981;-71
2021/06/18 03:46:46;;;;;;;21.17;7.80;;;;;;;13.77;69.83;99313.45;2175098;82;21500;-66
2021/06/18 03:49:46;;;;;;;21.95;7.95;;;;;;;13.72;69.84;99311.59;2175076;82;20972;-67
2021/06/18 03:52:47;;;;;;;21.15;7.75;;;;;;;13.76;70.22;99309.13;2174990;82;21023;-63
2021/06/18 03:55:47;;;;;;;26.57;7.92;;;;;;;13.93;70.52;99309.32;2175227;82;21042;-68
2021/06/18 03:58:48;;;;;;;24.60;8.18;;;;;;;14.19;70.20;99304.91;2174880;82;21345;-66
2021/06/18 04:01:49;;;;;;;30.15;7.37;;;;;;;14.46;69.87;99309.24;2175192;82;21068;-66
2021/06/18 04:04:50;;;;;;;21.70;7.40;;;;;;;14.80;70.07;99309.08;2175213;82;21452;-62
2021/06/18 04:07:52;;;;;;;21.25;7.17;;;;;;;15.21;70.14;99299.98;2175192;82;21485;-63
2021/06/18 04:10:53;;;;;;;21.02;7.33;;;;;;;15.56;70.17;99299.67;2175336;82;21011;-63
2021/06/18 04:13:53;;;;;;;20.65;6.50;;;;;;;15.98;69.86;99309.83;2175196;82;21475;-65
2021/06/18 04:16:53;;;;;;;18.05;6.00;;;;;;;16.40;69.46;99310.95;2175211;82;21450;-66
2021/06/18 04:19:54;;;;;;;19.20;6.20;;;;;;;16.85;68.43;99319.41;2175112;82;21000;-66
2021/06/18 04:22:54;;;;;;;18.48;5.50;;;;;;;17.29;67.48;99321.64;2175069;82;21001;-63
2021/06/18 04:25:55;;;;;;;17.45;5.87;;;;;;;17.65;66.84;99312.12;2175205;82;21500;-63
2021/06/18 04:28:56;;;;;;;20.13;6.20;;;;;;;17.99;65.71;99312.84;2175599;82;21496;-63
2021/06/18 04:31:56;;;;;;;18.65;5.75;;;;;;;18.28;64.99;99312.17;2175044;82;21052;-67
2021/06/18 04:34:57;;;;;;;19.92;5.65;;;;;;;18.55;64.58;99314.77;2175227;82;20981;-63
2021/06/18 04:37:57;;;;;;;18.73;5.95;;;;;;;18.80;64.01;99309.97;2175075;82;20993;-63
2021/06/18 04:40:58;;;;;;;17.73;5.30;;;;;;;19.06;63.49;99313.51;2175194;82;20973;-64
2021/06/18 04:43:58;;;;;;;18.65;5.72;;;;;;;19.27;62.09;99306.27;2174976;82;21009;-63
2021/06/18 04:46:59;;;;;;;16.37;5.22;;;;;;;19.51;62.26;99303.22;2175161;82;21008;-64
2021/06/18 04:49:59;;;;;;;18.35;5.60;;;;;;;19.76;61.64;99307.63;2175252;82;20957;-64
2021/06/18 04:53:01;;;;;;;19.73;5.55;;;;;;;20.01;60.58;99310.71;2175207;82;20980;-64
2021/06/18 04:56:02;;;;;;;20.48;5.83;;;;;;;20.28;60.59;99301.14;2175207;82;21492;-67
2021/06/18 04:59:03;;;;;;;19.52;5.75;;;;;;;20.54;60.08;99305.33;2175599;82;21044;-65
2021/06/18 05:02:03;;;;;;;19.57;5.55;;;;;;;20.78;59.64;99316.84;2175313;82;21025;-73
2021/06/18 05:05:04;;;;;;;15.48;5.25;;;;;;;21.15;57.84;99311.09;2175062;82;20980;-64
2021/06/18 05:08:04;;;;;;;17.50;5.30;;;;;;;21.15;57.84;99311.09;2175438;82;20941;-67
2021/06/18 05:11:05;;;;;;;19.00;5.50;;;;;;;21.36;58.00;99315.65;2175291;82;21016;-63
2021/06/18 05:14:05;;;;;;;19.10;5.40;;;;;;;21.55;57.59;99313.39;2175381;82;20969;-66
2021/06/18 05:17:06;;;;;;;14.28;5.12;;;;;;;21.80;56.87;99305.59;2175421;82;21004;-65
2021/06/18 05:20:06;;;;;;;16.62;5.50;;;;;;;22.01;56.28;99304.41;2175533;82;21032;-68
2021/06/18 05:23:09;;;;;;;17.85;5.58;;;;;;;22.23;55.79;99308.42;2175437;82;20996;-63
2021/06/18 05:26:09;;;;;;;18.73;5.20;;;;;;;22.47;56.35;99311.27;2151943;82;21503;-64
2021/06/18 05:29:09;;;;;;;16.47;5.33;;;;;;;22.72;54.76;99306.55;2175799;82;21005;-72
2021/06/18 05:32:10;;;;;;;19.33;5.57;;;;;;;22.93;54.89;99307.45;2177319;82;20981;-64
2021/06/18 05:35:10;;;;;;;16.83;5.30;;;;;;;23.23;54.89;99310.59;2177392;82;21024;-64
2021/06/18 05:38:11;;;;;;;16.00;5.47;;;;;;;23.39;53.29;99305.77;2177364;82;21016;-67
2021/06/18 05:41:11;;;;;;;17.73;5.70;;;;;;;23.45;53.15;99314.50;2177304;82;21012;-64
2021/06/18 05:44:11;;;;;;;19.40;5.70;;;;;;;23.51;51.28;99310.64;2177352;82;20980;-64
2021/06/18 05:47:12;;;;;;;17.77;5.37;;;;;;;23.59;53.20;99322.36;2177496;82;20968;-65
2021/06/18 05:50:12;;;;;;;16.40;5.17;;;;;;;23.77;51.81;99311.00;2177537;82;21036;-64
2021/06/18 05:53:13;;;;;;;16.53;5.10;;;;;;;23.96;51.68;99311.19;2177061;81;21011;-66
2021/06/18 05:56:14;;;;;;;19.70;5.83;;;;;;;24.15;51.34;99314.04;2176931;82;21015;-64
2021/06/18 05:59:15;;;;;;;17.23;5.67;;;;;;;24.43;51.35;99316.33;2177228;81;21028;-66
2021/06/18 06:02:17;;;;;;;14.40;5.13;;;;;;;24.63;50.41;99309.27;2177349;82;21008;-65
2021/06/18 06:05:19;;;;;;;17.37;5.17;;;;;;;24.79;50.58;99305.17;2176555;82;21507;-68
2021/06/18 06:08:20;;;;;;;20.40;5.60;;;;;;;25.05;50.16;99302.20;2177268;82;20992;-65
2021/06/18 06:11:20;;;;;;;16.03;5.57;;;;;;;25.25;49.68;99302.59;2177318;81;20960;-65
2021/06/18 06:14:21;;;;;;;16.57;5.37;;;;;;;25.47;49.88;99308.19;2177471;82;20941;-68
2021/06/18 06:17:21;;;;;;;18.53;5.60;;;;;;;25.65;49.00;99315.14;2177468;81;21012;-67
2021/06/18 06:20:22;;;;;;;20.93;5.73;;;;;;;25.79;48.66;99311.67;2177321;82;20980;-65
2021/06/18 06:23:23;;;;;;;19.73;5.53;;;;;;;25.95;48.62;99309.34;2177846;82;20976;-64
2021/06/18 06:26:23;;;;;;;18.53;5.90;;;;;;;26.10;47.78;99310.25;2177315;82;20972;-65
2021/06/18 06:29:23;;;;;;;19.90;5.77;;;;;;;26.26;47.06;99310.60;2176784;82;21024;-65
2021/06/18 06:32:24;;;;;;;17.67;5.50;;;;;;;26.31;47.01;99313.25;2175293;82;21008;-65
2021/06/18 06:35:24;;;;;;;17.40;5.83;;;;;;;26.40;44.97;99313.48;2175298;82;21527;-66
2021/06/18 06:38:25;;;;;;;18.83;5.60;;;;;;;26.42;44.94;99313.63;2175564;82;20969;-65
2021/06/18 06:41:25;;;;;;;18.00;5.57;;;;;;;26.56;46.60;99306.56;2175299;82;21008;-65
2021/06/18 06:44:26;;;;;;;19.27;5.83;;;;;;;26.79;46.91;99305.66;2175446;82;20985;-65
2021/06/18 06:47:28;;;;;;;18.70;5.80;;;;;;;27.03;45.98;99311.24;2174656;82;21638;-71
2021/06/18 06:50:29;;;;;;;15.07;5.53;;;;;;;27.25;45.57;99308.09;2175349;82;21027;-65
2021/06/18 06:53:29;;;;;;;18.40;5.40;;;;;;;27.41;44.72;99307.05;2175710;81;20969;-65
2021/06/18 06:56:31;;;;;;;15.97;5.40;;;;;;;27.48;45.05;99301.22;2175204;82;21012;-65
2021/06/18 06:59:32;;;;;;;16.75;5.72;;;;;;;27.50;44.57;99307.77;2175230;82;21092;-67
2021/06/18 07:02:32;;;;;;;18.37;5.50;;;;;;;27.64;44.69;99302.83;2175661;82;20973;-66
2021/06/18 07:05:33;;;;;;;19.83;5.57;;;;;;;27.85;44.98;99298.96;2175064;82;21024;-65
2021/06/18 07:08:33;;;;;;;15.77;5.17;;;;;;;28.02;43.50;99296.86;2175633;82;21031;-67
2021/06/18 07:11:33;;;;;;;14.37;4.93;;;;;;;28.00;42.97;99296.53;2175476;82;20985;-66
2021/06/18 07:17:36;;;;;;;17.50;5.42;;;;;;;28.30;42.14;99297.68;2152261;82;21473;-65
2021/06/18 07:20:37;;;;;;;17.30;5.37;;;;;;;28.27;41.17;99296.70;2175479;82;21047;-66
2021/06/18 07:23:37;;;;;;;15.20;5.07;;;;;;;28.20;40.62;99293.13;2175623;82;21013;-66
2021/06/18 07:26:38;;;;;;;14.90;4.77;;;;;;;28.29;41.74;99297.35;2175521;82;21020;-68
2021/06/18 07:29:38;;;;;;;15.50;5.10;;;;;;;28.50;41.82;99288.36;2175345;81;21043;-68
2021/06/18 07:32:39;;;;;;;18.77;5.23;;;;;;;28.75;41.95;99288.38;2175160;82;21039;-66
2021/06/18 07:35:39;;;;;;;16.60;5.25;;;;;;;29.07;41.72;99292.27;2175278;82;21444;-70
2021/06/18 07:38:40;;;;;;;16.63;4.97;;;;;;;29.31;41.22;99286.04;2175390;82;20969;-70
2021/06/18 07:41:40;;;;;;;18.33;6.30;;;;;;;29.32;40.19;99276.87;2175355;82;20953;-66
2021/06/18 07:44:41;;;;;;;14.63;5.00;;;;;;;29.40;40.20;99283.45;2175494;82;20975;-65
2021/06/18 07:47:42;;;;;;;15.58;4.87;;;;;;;29.60;40.48;99276.72;2174929;82;21005;-67
2021/06/18 07:50:42;;;;;;;17.20;4.80;;;;;;;29.73;39.58;99285.35;2175575;82;21058;-72
2021/06/18 07:53:43;;;;;;;16.33;5.07;;;;;;;29.85;39.64;99279.65;2175493;82;20973;-66
2021/06/18 07:56:45;;;;;;;15.13;5.10;;;;;;;30.03;39.04;99273.62;2175473;82;21031;-66
2021/06/18 07:59:45;;;;;;;13.45;4.80;;;;;;;30.16;38.81;99270.60;2151976;82;21082;-69
2021/06/18 08:02:46;;;;;;;12.93;4.60;;;;;;;30.19;38.37;99270.17;2175493;82;20981;-66
2021/06/18 08:05:46;;;;;;;13.43;4.92;;;;;;;30.31;38.05;99275.77;2175508;82;20965;-68
2021/06/18 08:08:47;;;;;;;16.67;4.97;;;;;;;30.37;38.33;99278.47;2175344;82;21008;-68
2021/06/18 08:11:49;;;;;;;16.03;5.10;;;;;;;30.61;37.57;99268.54;2175463;82;21000;-66
2021/06/18 08:14:49;;;;;;;11.57;4.47;;;;;;;30.61;37.57;99268.54;2152107;82;20980;-67
2021/06/18 08:17:50;;;;;;;14.58;5.08;;;;;;;30.71;37.39;99264.85;2175232;81;21024;-67
2021/06/18 08:20:51;;;;;;;16.67;5.60;;;;;;;30.69;36.92;99258.30;2175292;82;20981;-66
2021/06/18 08:23:51;;;;;;;18.10;5.20;;;;;;;30.81;37.42;99253.57;2175481;82;20980;-69
2021/06/18 08:26:52;;;;;;;15.43;4.83;;;;;;;30.89;35.29;99247.92;2175358;82;21039;-66
2021/06/18 08:29:52;;;;;;;14.87;4.73;;;;;;;30.89;35.29;99247.92;2175367;82;21029;-68
2021/06/18 08:32:53;;;;;;;14.73;5.03;;;;;;;30.94;36.87;99261.63;2175168;82;21658;-66
2021/06/18 08:35:54;;;;;;;16.32;5.00;;;;;;;31.12;35.28;99254.67;2175304;82;21052;-66
2021/06/18 08:38:54;;;;;;;17.43;5.13;;;;;;;31.19;35.43;99261.73;2175334;82;20980;-70
2021/06/18 08:41:55;;;;;;;15.30;5.00;;;;;;;31.26;35.96;99262.52;2174970;82;21512;-67
2021/06/18 08:44:56;;;;;;;12.97;4.73;;;;;;;31.36;34.85;99266.12;2175465;81;21045;-67
2021/06/18 08:47:56;;;;;;;17.23;5.47;;;;;;;31.46;35.79;99264.25;2175447;82;20989;-67
2021/06/18 08:50:57;;;;;;;14.80;5.20;;;;;;;31.55;35.25;99268.87;2175511;82;20996;-67
2021/06/18 08:53:57;;;;;;;15.63;5.00;;;;;;;31.52;35.04;99267.97;2175154;82;21028;-68
2021/06/18 08:56:58;;;;;;;16.52;5.30;;;;;;;31.54;34.93;99268.59;2175180;82;21048;-66
2021/06/18 08:59:58;;;;;;;16.25;4.85;;;;;;;31.58;35.64;99269.31;2175330;82;21539;-68
2021/06/18 09:02:59;;;;;;;17.07;5.40;;;;;;;31.68;35.22;99263.91;2175300;82;21029;-66
2021/06/18 09:05:59;;;;;;;17.87;5.42;;;;;;;31.84;35.11;99258.45;2175191;82;20945;-69
2021/06/18 09:09:00;;;;;;;15.90;5.53;;;;;;;31.94;34.38;99255.55;2175269;81;20993;-66
2021/06/18 09:12:00;;;;;;;15.00;5.30;;;;;;;32.05;34.80;99251.30;2175326;82;21297;-70
2021/06/18 09:15:04;;;;;;;18.67;5.60;;;;;;;32.05;34.80;99251.30;2175257;82;21694;-71
2021/06/18 09:18:04;;;;;;;17.67;5.60;;;;;;;32.19;33.70;99249.29;2175283;82;20976;-67
2021/06/18 09:21:05;;;;;;;17.02;5.25;;;;;;;32.16;34.15;99259.78;2175376;82;20965;-66
2021/06/18 09:24:05;;;;;;;15.68;5.25;;;;;;;32.29;33.91;99255.02;2175082;82;21001;-67
2021/06/18 09:27:06;;;;;;;13.48;5.30;;;;;;;32.44;33.93;99256.02;2175275;82;20949;-70
2021/06/18 09:30:06;;;;;;;17.57;5.40;;;;;;;32.56;33.58;99248.48;2175362;82;21454;-67
2021/06/18 09:33:09;;;;;;;15.83;4.95;;;;;;;32.72;33.00;99241.09;2177126;82;21254;-69
2021/06/18 09:36:09;;;;;;;15.83;5.40;;;;;;;32.61;32.17;99233.17;2150010;82;20972;-68
2021/06/18 09:39:09;;;;;;;16.90;5.08;;;;;;;32.57;32.98;99235.19;2177255;82;20957;-67
2021/06/18 09:42:10;;;;;;;;;;;;;;;32.75;32.22;99235.73;2179596;82;20993;-68
2021/06/18 09:45:10;;;;;;;13.87;5.20;;;;;;;32.96;32.82;99237.14;2177268;82;20146;-67
2021/06/18 09:48:11;;;;;;;;;;;;;;;33.12;32.72;99230.22;2179647;82;21024;-69
2021/06/18 09:51:12;;;;;;;13.45;5.08;;;;;;;33.33;32.18;99232.95;2177247;82;20110;-67
2021/06/18 09:54:12;;;;;;;16.80;5.17;;;;;;;33.27;31.59;99227.91;2177270;82;20985;-67
2021/06/18 09:57:12;;;;;;;;;;;;;;;33.16;32.38;99225.45;2179592;82;21455;-67
2021/06/18 10:00:15;;;;;;;16.63;5.37;;;;;;;33.30;30.90;99222.03;2176877;82;20384;-67
2021/06/18 10:03:15;;;;;;;14.15;5.05;;;;;;;33.37;31.60;99214.30;2177230;82;21019;-67
2021/06/18 10:06:16;;;;;;;;;;;;;;;33.40;31.46;99216.55;2179728;82;20968;-67
2021/06/18 10:09:16;;;;;;;15.45;5.20;;;;;;;33.42;31.40;99214.44;2177185;82;20440;-68
2021/06/18 10:12:17;;;;;;;;;;;;;;;33.36;31.15;99205.84;2179616;81;21056;-70
2021/06/18 10:15:17;;;;;;;15.47;5.40;;;;;;;33.37;31.68;99214.30;2177281;82;20141;-69
2021/06/18 10:18:18;;;;;;;;;;;;;;;33.58;31.73;99217.81;2179586;81;20968;-67
2021/06/18 10:21:18;;;;;;;13.30;5.00;;;;;;;33.76;30.89;99217.44;2177447;82;20147;-67
2021/06/18 10:24:18;;;;;;;;;;;;;;;33.98;29.99;99219.87;2179788;82;20937;-71
2021/06/18 10:27:21;;;;;;;15.57;4.73;;;;;;;34.14;29.26;99214.77;2177332;82;20087;-69
2021/06/18 10:30:21;;;;;;;15.32;4.72;;;;;;;34.18;29.56;99220.86;2176925;81;21012;-67
2021/06/18 10:33:22;;;;;;;;;;;;;;;34.10;27.91;99216.31;2179705;82;21444;-67
2021/06/18 10:36:24;;;;;;;14.10;4.90;;;;;;;34.09;29.28;99214.65;2177343;82;20426;-69
2021/06/18 10:39:25;;;;;;;11.03;4.30;;;;;;;34.07;30.06;99216.80;2176936;81;21007;-69
2021/06/18 10:42:25;;;;;;;;;;;;;;;34.30;29.49;99215.41;2179615;82;21115;-69
2021/06/18 10:45:26;;;;;;;14.93;4.97;;;;;;;34.46;28.74;99207.57;2177321;82;20106;-71
2021/06/18 10:48:26;;;;;;;;;;;;;;;34.47;28.23;99207.87;2179519;82;21347;-68
2021/06/18 10:51:27;;;;;;;13.13;4.33;;;;;;;34.42;26.61;99198.23;2177453;82;20106;-73
2021/06/18 10:57:30;;;;;;;17.02;5.17;;;;;;;34.39;27.25;99203.62;2150001;82;21005;-69
2021/06/18 11:00:31;;;;;;;13.18;4.40;;;;;;;34.30;27.16;99205.07;2176894;82;21023;-72
2021/06/18 11:03:31;;;;;;;12.98;4.45;;;;;;;34.39;28.19;99204.97;2177061;81;21404;-69
2021/06/18 11:06:32;;;;;;;11.60;4.25;;;;;;;34.52;26.79;99193.83;2177039;82;20994;-69
2021/06/18 11:09:32;;;;;;;13.62;4.25;;;;;;;34.47;26.27;99194.27;2176514;82;21056;-73
2021/06/18 11:12:33;;;;;;;;;;;;;;;34.44;26.70;99193.36;2179687;82;21455;-68
2021/06/18 11:15:33;;;;;;;11.33;4.30;;;;;;;34.43;26.29;99190.36;2177206;82;20389;-68
2021/06/18 11:18:37;;;;;;;;;;;;;;;34.55;26.48;99188.95;2179663;82;20961;-67
2021/06/18 11:21:36;;;;;;;9.68;3.92;;;;;;;34.56;26.01;99192.80;2149764;82;20409;-73
2021/06/18 11:24:38;;;;;;;15.23;4.50;;;;;;;34.76;26.16;99184.73;2176933;82;20989;-68
2021/06/18 11:27:39;;;;;;;11.00;4.37;;;;;;;34.77;25.67;99184.49;2176938;81;20968;-75
2021/06/18 11:30:39;;;;;;;13.13;4.33;;;;;;;34.78;24.93;99182.59;2176859;82;21507;-68
2021/06/18 11:33:40;;;;;;;11.93;4.35;;;;;;;34.80;24.97;99177.22;2176963;82;21468;-67
2021/06/18 11:36:40;;;;;;;12.60;4.47;;;;;;;34.92;25.40;99177.16;2177055;82;21028;-68
2021/06/18 11:39:42;;;;;;;13.08;4.35;;;;;;;34.99;26.30;99171.56;2177217;82;20933;-72
2021/06/18 11:42:43;;;;;;;13.43;4.20;;;;;;;35.19;25.03;99173.81;2177269;82;21068;-71
2021/06/18 11:45:43;;;;;;;13.90;4.33;;;;;;;35.09;24.54;99166.28;2177247;82;21032;-68
2021/06/18 11:48:43;;;;;;;14.83;4.20;;;;;;;34.96;24.83;99167.42;2177083;82;21010;-67
2021/06/18 11:51:44;;;;;;;14.87;4.47;;;;;;;35.02;24.13;99171.07;2177201;81;21445;-76
2021/06/18 11:54:44;;;;;;;16.75;4.75;;;;;;;35.05;25.29;99161.03;2177103;82;20941;-68
2021/06/18 11:57:47;;;;;;;15.72;4.47;;;;;;;35.13;25.97;99162.52;2177104;81;20976;-68
2021/06/18 12:00:47;;;;;;;12.55;4.22;;;;;;;35.19;25.85;99180.08;2177153;82;21052;-73
2021/06/18 12:03:48;;;;;;;11.28;4.28;;;;;;;35.32;25.70;99165.88;2176895;82;20981;-67
2021/06/18 12:06:48;;;;;;;11.20;4.37;;;;;;;35.45;24.73;99167.45;2177070;82;20986;-69
2021/06/18 12:09:49;;;;;;;16.30;4.90;;;;;;;35.40;24.54;99165.44;2177012;82;21047;-68
2021/06/18 12:12:49;;;;;;;11.12;4.62;;;;;;;35.37;25.40;99158.61;2177212;82;20985;-73
2021/06/18 12:15:50;;;;;;;11.83;4.25;;;;;;;35.44;26.04;99157.61;2177205;82;20976;-69
2021/06/18 12:18:50;;;;;;;14.65;4.45;;;;;;;35.55;25.42;99158.05;2177329;82;20957;-69
2021/06/18 12:21:51;;;;;;;14.58;3.98;;;;;;;35.56;25.81;99162.44;2177171;82;20991;-67
2021/06/18 12:24:51;;;;;;;10.03;4.22;;;;;;;35.71;23.96;99150.92;2177209;82;21056;-72
2021/06/18 12:27:51;;;;;;;12.35;4.47;;;;;;;35.78;24.93;99150.75;2177100;82;20969;-71
2021/06/18 12:30:52;;;;;;;14.93;4.35;;;;;;;35.76;24.64;99140.09;2176434;81;21025;-68
2021/06/18 12:33:52;;;;;;;13.15;4.20;;;;;;;35.79;24.24;99148.28;2175229;82;21412;-68
2021/06/18 12:36:53;;;;;;;14.38;4.40;;;;;;;35.79;25.45;99146.41;2175081;82;20945;-67
2021/06/18 12:39:53;;;;;;;14.13;4.37;;;;;;;35.98;23.54;99139.32;2175054;82;20949;-73
2021/06/18 12:42:54;;;;;;;14.23;4.28;;;;;;;35.84;24.71;99141.03;2175061;82;21024;-69
2021/06/18 12:45:54;;;;;;;15.88;4.90;;;;;;;35.87;25.48;99139.16;2175271;82;21012;-68
2021/06/18 12:48:55;;;;;;;12.75;4.33;;;;;;;35.95;25.66;99139.80;2175184;82;20989;-67
2021/06/18 12:51:56;;;;;;;15.93;4.28;;;;;;;36.16;24.59;99140.37;2175112;82;21008;-67
2021/06/18 12:54:56;;;;;;;16.07;4.33;;;;;;;36.19;24.27;99137.65;2175199;82;20969;-72
2021/06/18 12:57:57;;;;;;;15.32;4.85;;;;;;;36.18;24.15;99145.02;2175124;82;21328;-73
2021/06/18 13:00:59;;;;;;;11.22;4.58;;;;;;;36.21;24.44;99145.06;2174693;82;21040;-68
2021/06/18 13:04:01;;;;;;;11.57;4.28;;;;;;;36.21;23.97;99135.51;2175174;82;20980;-68
2021/06/18 13:07:02;;;;;;;15.43;5.00;;;;;;;36.17;24.34;99131.08;2175299;82;21008;-71
2021/06/18 13:10:03;;;;;;;13.80;4.10;;;;;;;36.17;24.62;99136.55;2174984;82;20992;-67
2021/06/18 13:13:03;;;;;;;11.90;4.20;;;;;;;36.25;23.48;99138.02;2175191;82;20976;-67
2021/06/18 13:16:04;;;;;;;10.53;4.50;;;;;;;36.19;23.92;99139.02;2175146;82;20957;-67
2021/06/18 13:19:04;;;;;;;13.62;4.33;;;;;;;36.24;24.89;99130.34;2175145;82;20953;-73
2021/06/18 13:22:05;;;;;;;12.70;4.28;;;;;;;36.36;24.40;99127.53;2175147;82;20973;-71
2021/06/18 13:25:05;;;;;;;19.73;5.10;;;;;;;36.43;24.89;99119.67;2175150;82;20989;-69
2021/06/18 13:28:05;;;;;;;11.45;4.05;;;;;;;36.53;23.79;99120.59;2175159;81;20961;-67
2021/06/18 13:31:06;;;;;;;11.35;4.03;;;;;;;36.61;24.12;99120.69;2175251;82;21067;-73
2021/06/18 13:34:06;;;;;;;16.05;4.97;;;;;;;36.68;23.68;99118.57;2177134;82;21020;-68
2021/06/18 13:37:07;;;;;;;16.15;4.53;;;;;;;36.62;23.77;99122.86;2177145;81;21491;-67
2021/06/18 13:40:07;;;;;;;11.90;4.25;;;;;;;36.49;24.24;99126.28;2177089;82;21820;-68
2021/06/18 13:43:08;;;;;;;12.13;4.35;;;;;;;36.45;24.07;99114.24;2177142;82;20964;-68
2021/06/18 13:46:08;;;;;;;12.55;4.35;;;;;;;36.47;23.61;99108.52;2176995;81;20957;-68
2021/06/18 13:49:09;;;;;;;10.88;4.20;;;;;;;36.37;23.07;99118.80;2176927;82;20972;-67
2021/06/18 13:52:09;;;;;;;12.88;4.40;;;;;;;36.46;24.20;99115.88;2177038;82;20981;-70
2021/06/18 13:55:10;;;;;;;13.78;4.50;;;;;;;36.67;24.41;99105.17;2177141;82;20921;-74
2021/06/18 13:58:10;;;;;;;10.75;4.30;;;;;;;36.59;24.20;99111.91;2177134;82;21008;-68
2021/06/18 14:01:11;;;;;;;15.43;4.37;;;;;;;36.68;24.10;99112.27;2176745;82;21062;-67
2021/06/18 14:04:12;;;;;;;12.85;4.40;;;;;;;36.70;24.25;99108.75;2177090;82;21518;-70
2021/06/18 14:07:12;;;;;;;15.05;4.50;;;;;;;36.48;24.13;99104.17;2177086;82;20977;-71
2021/06/18 14:10:13;;;;;;;14.63;4.47;;;;;;;36.39;24.83;99104.33;2177037;82;20996;-70